KMCC/MCC METAR and TAF weather

Enter ICAO airport designator
Station Type Date Time Source
KMCC METAR 2019/04/17 16:20 UTC NOAA

KMCC 171620Z AUTO 13006KT 9SM CLR 14/10 A3025 RMK AO2


Station Type Date Time Source
KMCC Decoded METAR 2019/04/17 16:20 UTC NOAA

Sacramento, McClellan Airfield Airport, CA, United States (KMCC) 38-40N 121-24W
Apr 17, 2019 - 12:20 PM EDT / 2019.04.17 1620 UTC
Wind: from the SE (130 degrees) at 7 MPH (6 KT):0
Visibility: 9 mile(s):0
Sky conditions: clear
Temperature: 57 F (14 C)
Dew Point: 50 F (10 C)
Relative Humidity: 76%
Pressure (altimeter): 30.25 in. Hg (1024 hPa)
ob: KMCC 171620Z AUTO 13006KT 9SM CLR 14/10 A3025 RMK AO2
cycle: 16

Station Type Date Time Source
KMCC TAF 2019/04/22 18:36 UTC NOAA

TAF KMCC 221732Z 2218/2318 32012G20KT P6SM FEW250
FM230200 32006KT P6SM FEW250
AMD LTD TO CLD VIS

Example: see airport list